createdAt,value
2018-07-31T00:01:12.874Z,100122.00
2018-07-31T00:06:21.766Z,100125.00
2018-07-31T00:11:25.666Z,100127.00
2018-07-31T00:16:29.036Z,100130.00
2018-07-31T00:21:32.495Z,100128.00
2018-07-31T00:26:36.097Z,100121.00
2018-07-31T00:31:39.499Z,100116.00
2018-07-31T00:36:42.928Z,100114.00
2018-07-31T00:41:46.356Z,100111.00
2018-07-31T00:46:49.747Z,100111.00
2018-07-31T00:51:53.157Z,100104.00
2018-07-31T00:56:56.748Z,100105.00
2018-07-31T01:02:00.315Z,100112.00
2018-07-31T01:07:03.836Z,100103.00
2018-07-31T01:12:07.358Z,100109.00
2018-07-31T01:17:11.119Z,100096.00
2018-07-31T01:22:14.614Z,100111.00
2018-07-31T01:27:18.054Z,100112.00
2018-07-31T01:32:21.501Z,100103.00
2018-07-31T01:37:24.475Z,100109.00
2018-07-31T01:42:27.526Z,100105.00
2018-07-31T01:47:30.547Z,100103.00
2018-07-31T01:52:33.584Z,100112.00
2018-07-31T01:57:36.633Z,100104.00
2018-07-31T02:02:39.612Z,100104.00
2018-07-31T02:07:42.565Z,100100.00
2018-07-31T02:12:45.532Z,100096.00
2018-07-31T02:17:48.500Z,100090.00
2018-07-31T02:22:51.570Z,100083.00
2018-07-31T02:27:54.618Z,100084.00
2018-07-31T02:32:57.633Z,100091.00
2018-07-31T02:38:00.631Z,100089.00
2018-07-31T02:43:03.572Z,100093.00
2018-07-31T02:48:06.537Z,100091.00
2018-07-31T02:53:09.763Z,100088.00
2018-07-31T02:58:12.870Z,100095.00
2018-07-31T03:03:16.602Z,100101.00
2018-07-31T03:08:19.741Z,100100.00
2018-07-31T03:13:22.923Z,100107.00
2018-07-31T03:18:26.368Z,100105.00
2018-07-31T03:23:29.397Z,100115.00
2018-07-31T03:28:32.378Z,100105.00
2018-07-31T03:33:35.359Z,100115.00
2018-07-31T03:38:38.672Z,100105.00
2018-07-31T03:43:41.692Z,100095.00
2018-07-31T03:48:44.842Z,100108.00
2018-07-31T03:53:47.872Z,100098.00
2018-07-31T03:58:50.968Z,100101.00
2018-07-31T04:03:54.184Z,100100.00
2018-07-31T04:08:57.223Z,100113.00
2018-07-31T04:14:00.242Z,100119.00
2018-07-31T04:19:03.261Z,100113.00
2018-07-31T04:24:06.279Z,100112.00
2018-07-31T04:29:09.191Z,100112.00
2018-07-31T04:34:12.176Z,100121.00
2018-07-31T04:39:15.191Z,100117.00
2018-07-31T04:44:18.211Z,100118.00
2018-07-31T04:49:21.201Z,100137.00
2018-07-31T04:54:24.219Z,100142.00
2018-07-31T04:59:27.195Z,100157.00
2018-07-31T05:04:30.276Z,100162.00
2018-07-31T05:09:33.212Z,100177.00
2018-07-31T05:14:36.191Z,100183.00
2018-07-31T05:19:39.235Z,100196.00
2018-07-31T05:24:42.364Z,100190.00
2018-07-31T05:29:45.401Z,100195.00
2018-07-31T05:34:48.412Z,100206.00
2018-07-31T05:39:51.395Z,100209.00
2018-07-31T05:44:54.420Z,100213.00
2018-07-31T05:49:57.584Z,100222.00
2018-07-31T05:55:00.540Z,100215.00
2018-07-31T06:00:05.292Z,100235.00
2018-07-31T06:05:08.432Z,100244.00
2018-07-31T06:10:11.441Z,100232.00
2018-07-31T06:15:14.475Z,100230.00
2018-07-31T06:20:17.465Z,100239.00
2018-07-31T06:25:20.440Z,100250.00
2018-07-31T06:30:23.451Z,100250.00
2018-07-31T06:35:26.661Z,100258.00
2018-07-31T06:40:29.756Z,100261.00
2018-07-31T06:45:32.767Z,100275.00
2018-07-31T06:50:35.968Z,100271.00
2018-07-31T06:55:38.984Z,100292.00
2018-07-31T07:00:42.097Z,100289.00
2018-07-31T07:05:45.144Z,100285.00
2018-07-31T07:10:48.188Z,100297.00
2018-07-31T07:15:51.158Z,100304.00
2018-07-31T07:20:54.224Z,100300.00
2018-07-31T07:25:57.213Z,100306.00
2018-07-31T07:31:00.266Z,100325.00
2018-07-31T07:36:03.279Z,100321.00
2018-07-31T07:41:06.781Z,100320.00
2018-07-31T07:46:09.783Z,100337.00
2018-07-31T07:51:13.957Z,100325.00
2018-07-31T07:56:17.075Z,100330.00
2018-07-31T08:01:20.103Z,100333.00
2018-07-31T08:06:23.114Z,100322.00
2018-07-31T08:11:26.157Z,100336.00
2018-07-31T08:16:29.204Z,100338.00
2018-07-31T08:21:32.622Z,100341.00
2018-07-31T08:26:35.636Z,100343.00
2018-07-31T08:31:38.777Z,100350.00
2018-07-31T08:36:41.823Z,100346.00
2018-07-31T08:41:45.000Z,100334.00
2018-07-31T08:46:48.058Z,100335.00
2018-07-31T08:51:51.053Z,100339.00
2018-07-31T08:56:54.183Z,100351.00
2018-07-31T09:01:57.256Z,100349.00
2018-07-31T09:07:00.457Z,100355.00
2018-07-31T09:12:03.984Z,100352.00
2018-07-31T09:17:07.008Z,100352.00
2018-07-31T09:22:10.033Z,100354.00
2018-07-31T09:27:13.067Z,100346.00
2018-07-31T09:32:20.484Z,100344.00
2018-07-31T09:37:23.489Z,100345.00
2018-07-31T09:42:26.489Z,100359.00
2018-07-31T09:47:29.564Z,100343.00
2018-07-31T09:52:32.552Z,100341.00
2018-07-31T09:57:35.593Z,100333.00
2018-07-31T10:02:38.621Z,100331.00
2018-07-31T10:07:41.663Z,100326.00
2018-07-31T10:12:44.757Z,100325.00
2018-07-31T10:17:47.835Z,100318.00
2018-07-31T10:22:50.939Z,100319.00
2018-07-31T10:27:53.987Z,100314.00
2018-07-31T10:32:57.104Z,100317.00
2018-07-31T10:38:00.123Z,100314.00
2018-07-31T10:43:03.196Z,100311.00
2018-07-31T10:48:06.567Z,100312.00
2018-07-31T10:53:09.580Z,100324.00
2018-07-31T10:58:12.762Z,100312.00
2018-07-31T11:03:15.805Z,100314.00
2018-07-31T11:08:18.892Z,100313.00
2018-07-31T11:13:21.938Z,100312.00
2018-07-31T11:18:24.964Z,100311.00
2018-07-31T11:23:28.048Z,100319.00
2018-07-31T11:28:31.093Z,100312.00
2018-07-31T11:33:34.057Z,100307.00
2018-07-31T11:38:37.066Z,100309.00
2018-07-31T11:43:40.948Z,100304.00
2018-07-31T11:48:43.987Z,100309.00
2018-07-31T11:53:47.000Z,100293.00
2018-07-31T11:58:50.021Z,100295.00
2018-07-31T12:03:53.321Z,100297.00
2018-07-31T12:08:56.345Z,100288.00
2018-07-31T12:13:59.415Z,100288.00
2018-07-31T12:19:02.547Z,100284.00
2018-07-31T12:24:05.627Z,100287.00
2018-07-31T12:29:08.659Z,100280.00
2018-07-31T12:34:11.661Z,100282.00
2018-07-31T12:39:14.656Z,100288.00
2018-07-31T12:44:17.781Z,100298.00
2018-07-31T12:49:20.793Z,100282.00
2018-07-31T12:54:23.831Z,100284.00
2018-07-31T12:59:26.833Z,100283.00
2018-07-31T13:04:29.860Z,100287.00
2018-07-31T13:09:32.857Z,100285.00
2018-07-31T13:14:35.882Z,100276.00
2018-07-31T13:19:39.024Z,100285.00
2018-07-31T13:24:42.079Z,100276.00
2018-07-31T13:29:45.415Z,100280.00
2018-07-31T13:34:48.408Z,100261.00
2018-07-31T13:39:51.688Z,100268.00
2018-07-31T13:44:55.340Z,100269.00
2018-07-31T13:49:58.468Z,100263.00
2018-07-31T13:55:01.686Z,100266.00
2018-07-31T14:00:05.161Z,100265.00
2018-07-31T14:05:08.261Z,100258.00
2018-07-31T14:10:11.480Z,100265.00
2018-07-31T14:15:14.507Z,100268.00
2018-07-31T14:20:17.556Z,100267.00
2018-07-31T14:25:20.630Z,100270.00
2018-07-31T14:30:23.736Z,100262.00
2018-07-31T14:35:26.755Z,100276.00
2018-07-31T14:40:29.847Z,100263.00
2018-07-31T14:45:32.855Z,100263.00
2018-07-31T14:50:35.940Z,100259.00
2018-07-31T14:55:39.016Z,100264.00
2018-07-31T15:00:42.027Z,100268.00
2018-07-31T15:05:45.203Z,100262.00
2018-07-31T15:10:48.239Z,100265.00
2018-07-31T15:15:51.347Z,100262.00
2018-07-31T15:20:54.460Z,100261.00
2018-07-31T15:25:57.496Z,100257.00
2018-07-31T15:31:00.557Z,100260.00
2018-07-31T15:36:03.792Z,100272.00
2018-07-31T15:41:06.924Z,100272.00
2018-07-31T15:46:10.139Z,100281.00
2018-07-31T15:51:13.256Z,100272.00
2018-07-31T15:56:16.311Z,100278.00
2018-07-31T16:01:19.395Z,100285.00
2018-07-31T16:06:22.444Z,100286.00
2018-07-31T16:11:25.542Z,100286.00
2018-07-31T16:16:28.804Z,100281.00
2018-07-31T16:21:31.958Z,100283.00
2018-07-31T16:26:35.039Z,100273.00
2018-07-31T16:31:38.153Z,100274.00
2018-07-31T16:36:41.255Z,100272.00
2018-07-31T16:41:44.263Z,100276.00
2018-07-31T16:46:47.379Z,100281.00
2018-07-31T16:51:50.479Z,100275.00
2018-07-31T16:56:53.550Z,100277.00
2018-07-31T17:01:57.078Z,100281.00
2018-07-31T17:07:00.576Z,100275.00
2018-07-31T17:12:04.109Z,100277.00
2018-07-31T17:17:07.200Z,100276.00
2018-07-31T17:22:10.360Z,100283.00
2018-07-31T17:27:13.425Z,100296.00
2018-07-31T17:32:16.454Z,100293.00
2018-07-31T17:37:19.523Z,100299.00
2018-07-31T17:42:22.857Z,100299.00
2018-07-31T17:47:25.948Z,100297.00
2018-07-31T17:52:29.022Z,100302.00
2018-07-31T17:57:32.154Z,100297.00
2018-07-31T18:02:35.206Z,100304.00
2018-07-31T18:07:38.255Z,100312.00
2018-07-31T18:12:41.441Z,100301.00
2018-07-31T18:17:44.518Z,100307.00
2018-07-31T18:22:48.059Z,100304.00
2018-07-31T18:27:51.134Z,100309.00
2018-07-31T18:32:54.378Z,100315.00
2018-07-31T18:37:57.947Z,100312.00
2018-07-31T18:43:01.643Z,100305.00
2018-07-31T18:48:04.800Z,100316.00
2018-07-31T18:53:07.902Z,100324.00
2018-07-31T18:58:11.078Z,100331.00
2018-07-31T19:03:14.260Z,100319.00
2018-07-31T19:08:17.308Z,100334.00
2018-07-31T19:13:20.464Z,100336.00
2018-07-31T19:18:23.640Z,100341.00
2018-07-31T19:23:26.759Z,100344.00
2018-07-31T19:28:31.435Z,100335.00
2018-07-31T19:33:34.514Z,100353.00
2018-07-31T19:38:37.517Z,100353.00
2018-07-31T19:43:40.590Z,100352.00
2018-07-31T19:48:43.712Z,100360.00
2018-07-31T19:53:46.719Z,100358.00
2018-07-31T19:58:49.743Z,100357.00
2018-07-31T20:03:52.988Z,100354.00
2018-07-31T20:08:56.313Z,100361.00
2018-07-31T20:13:59.440Z,100363.00
2018-07-31T20:19:02.752Z,100365.00
2018-07-31T20:24:06.537Z,100364.00
2018-07-31T20:29:09.843Z,100364.00
2018-07-31T20:34:13.021Z,100361.00
2018-07-31T20:39:16.038Z,100361.00
2018-07-31T20:44:19.034Z,100376.00
2018-07-31T20:49:21.973Z,100372.00
2018-07-31T20:54:24.930Z,100380.00
2018-07-31T20:59:27.890Z,100377.00
2018-07-31T21:04:30.944Z,100363.00
2018-07-31T21:09:33.965Z,100364.00
2018-07-31T21:14:37.034Z,100366.00
2018-07-31T21:19:40.106Z,100368.00
2018-07-31T21:24:43.080Z,100384.00
2018-07-31T21:29:46.070Z,100378.00
2018-07-31T21:34:49.242Z,100368.00
2018-07-31T21:39:52.317Z,100389.00
2018-07-31T21:44:55.336Z,100376.00
2018-07-31T21:49:58.415Z,100374.00
2018-07-31T21:55:01.557Z,100373.00
2018-07-31T22:00:08.022Z,100378.00
2018-07-31T22:05:11.032Z,100380.00
2018-07-31T22:10:14.129Z,100363.00
2018-07-31T22:15:17.252Z,100379.00
2018-07-31T22:20:20.339Z,100405.00
2018-07-31T22:25:23.462Z,100419.00
2018-07-31T22:30:26.665Z,100421.00
2018-07-31T22:35:29.724Z,100410.00
2018-07-31T22:40:32.749Z,100406.00
2018-07-31T22:45:35.776Z,100408.00
2018-07-31T22:50:38.815Z,100410.00
2018-07-31T22:55:41.888Z,100411.00
2018-07-31T23:00:44.895Z,100424.00
2018-07-31T23:05:47.937Z,100417.00
2018-07-31T23:10:50.954Z,100416.00
2018-07-31T23:15:54.034Z,100419.00
2018-07-31T23:20:57.050Z,100416.00
2018-07-31T23:26:00.037Z,100411.00
2018-07-31T23:31:03.135Z,100417.00
2018-07-31T23:36:06.239Z,100427.00
2018-07-31T23:41:09.258Z,100428.00
2018-07-31T23:46:12.247Z,100444.00
2018-07-31T23:51:15.255Z,100446.00
2018-07-31T23:56:18.281Z,100451.00
